Time;durP1;ratioP1;P1;durP2;ratioP2;P2;SDS_P1;SDS_P2;PMS_P1;PMS_P2;Temp;Humidity;BMP_temperature;BMP_pressure;BME280_temperature;BME280_humidity;BME280_pressure;Samples;Min_cycle;Max_cycle;Signal;HPM_P1;HPM_P2
2023/08/04 00:01:19;;;;;;;11.25;10.13;;;;;;;24.56;79.97;64545.97;5080216;28;20196;-76
2023/08/04 00:03:46;;;;;;;11.10;10.00;;;;;;;24.54;80.84;64547.00;5084810;28;20241;-76
2023/08/04 00:06:13;;;;;;;10.25;9.30;;;;;;;24.49;81.08;64544.38;5081865;28;21376;-75
2023/08/04 00:08:40;;;;;;;11.25;10.23;;;;;;;24.50;80.72;64542.31;5084358;28;20216;-75
2023/08/04 00:11:09;;;;;;;10.65;9.60;;;;;;;24.50;80.42;64542.31;5065455;28;20243;-76
2023/08/04 00:13:36;;;;;;;11.20;10.30;;;;;;;24.47;79.92;64537.06;5066373;28;20216;-77
2023/08/04 00:16:07;;;;;;;10.48;9.63;;;;;;;24.51;79.70;64540.75;5078268;28;20399;-76
2023/08/04 00:18:34;;;;;;;11.45;10.35;;;;;;;24.46;79.77;64540.72;5086723;28;20222;-75
2023/08/04 00:21:01;;;;;;;10.65;9.75;;;;;;;24.45;79.95;64537.06;5088360;28;20196;-75
2023/08/04 00:23:28;;;;;;;10.48;9.55;;;;;;;24.39;80.13;64530.78;5088197;28;20250;-77
2023/08/04 00:25:55;;;;;;;11.65;10.65;;;;;;;24.38;80.54;64532.34;5087126;28;20530;-76
2023/08/04 00:28:24;;;;;;;10.95;9.88;;;;;;;24.43;80.69;64534.97;5077128;28;20226;-75
2023/08/04 00:30:51;;;;;;;11.27;10.20;;;;;;;24.44;80.41;64539.16;5070112;28;20201;-77
2023/08/04 00:33:17;;;;;;;12.23;9.52;;;;;;;24.45;80.07;64531.88;5072922;28;20255;-76
2023/08/04 00:35:44;;;;;;;11.25;10.15;;;;;;;24.41;80.32;64535.47;5088597;28;20265;-75
2023/08/04 00:38:11;;;;;;;11.95;9.88;;;;;;;24.33;81.08;64524.50;5086159;28;20269;-75
2023/08/04 00:40:38;;;;;;;11.30;10.30;;;;;;;24.33;81.07;64516.69;5088537;28;20194;-76
2023/08/04 00:43:05;;;;;;;10.27;9.38;;;;;;;24.30;80.91;64524.50;5088771;28;20294;-76
2023/08/04 00:45:34;;;;;;;9.80;8.98;;;;;;;24.30;80.78;64521.88;5086748;28;20207;-77
2023/08/04 00:48:02;;;;;;;10.52;9.65;;;;;;;24.27;80.66;64516.16;5088232;28;20540;-76
2023/08/04 00:50:30;;;;;;;11.40;10.40;;;;;;;24.28;80.68;64519.28;5088261;28;20199;-77
2023/08/04 00:52:58;;;;;;;11.07;9.98;;;;;;;24.25;81.11;64513.53;5082900;28;20232;-76
2023/08/04 00:55:26;;;;;;;10.02;9.10;;;;;;;24.26;80.18;64514.56;5086316;28;20234;-77
2023/08/04 00:57:55;;;;;;;10.95;9.98;;;;;;;24.24;80.31;64515.09;5089224;28;20220;-76
2023/08/04 01:00:23;;;;;;;9.60;8.90;;;;;;;24.24;80.04;64513.00;5086442;28;20235;-75
2023/08/04 01:02:51;;;;;;;10.50;9.35;;;;;;;24.28;79.96;64519.78;5088708;28;20290;-75
2023/08/04 01:05:18;;;;;;;10.32;9.52;;;;;;;24.30;79.82;64516.69;5085391;28;20204;-76
2023/08/04 01:07:52;;;;;;;10.20;9.30;;;;;;;24.30;79.68;64524.50;5086515;28;20211;-75
2023/08/04 01:10:25;;;;;;;9.85;9.05;;;;;;;24.31;80.65;64519.81;5086403;28;20613;-78
2023/08/04 01:12:58;;;;;;;10.45;9.23;;;;;;;24.26;81.04;64514.56;5088277;28;20240;-75
2023/08/04 01:15:26;;;;;;;10.80;9.65;;;;;;;24.18;81.99;64511.94;5088980;28;20192;-76
2023/08/04 01:17:55;;;;;;;10.80;9.90;;;;;;;24.05;82.88;64497.78;5087617;28;20242;-75
2023/08/04 01:20:22;;;;;;;10.98;9.88;;;;;;;24.02;83.18;64494.66;5085551;28;20261;-76
2023/08/04 01:22:51;;;;;;;10.48;9.43;;;;;;;24.02;83.29;64492.06;5084887;28;20220;-76
2023/08/04 01:25:19;;;;;;;10.95;10.02;;;;;;;23.94;84.24;64484.72;5087175;28;20206;-76
2023/08/04 01:27:51;;;;;;;10.85;9.85;;;;;;;23.92;84.00;64479.47;5084222;28;20462;-75
2023/08/04 01:30:21;;;;;;;10.73;9.73;;;;;;;23.86;84.63;64473.22;5086338;28;20192;-78
2023/08/04 01:32:49;;;;;;;9.95;9.25;;;;;;;23.82;84.74;64463.81;5084345;28;20408;-76
2023/08/04 01:35:16;;;;;;;10.80;9.63;;;;;;;23.83;84.50;64473.19;5087143;28;20204;-76
2023/08/04 01:37:44;;;;;;;10.48;9.57;;;;;;;23.85;84.60;64477.88;5083175;28;20375;-75
2023/08/04 01:40:13;;;;;;;12.23;10.20;;;;;;;23.82;84.25;64469.56;5087633;28;20505;-76
2023/08/04 01:42:40;;;;;;;9.90;9.00;;;;;;;23.73;85.00;64462.72;5087803;28;20252;-77
2023/08/04 01:45:08;;;;;;;12.90;9.45;;;;;;;23.69;85.88;64458.53;5085599;28;20198;-75
2023/08/04 01:47:36;;;;;;;10.75;9.75;;;;;;;23.65;86.33;64454.38;5084897;28;20524;-76
2023/08/04 01:50:03;;;;;;;10.40;9.50;;;;;;;23.65;86.51;64456.97;5086826;28;20202;-76
2023/08/04 01:52:30;;;;;;;11.88;9.95;;;;;;;23.64;86.47;64455.41;5085649;28;20232;-75
2023/08/04 01:54:58;;;;;;;10.65;9.68;;;;;;;23.58;86.70;64449.09;5084769;28;20508;-76
2023/08/04 01:57:26;;;;;;;11.32;9.52;;;;;;;23.57;86.75;64442.88;5078234;28;20192;-76
2023/08/04 01:59:53;;;;;;;10.40;9.40;;;;;;;23.53;87.20;64439.22;5086764;28;20212;-77
2023/08/04 02:02:20;;;;;;;10.13;9.32;;;;;;;23.51;87.61;64431.38;5085029;28;20493;-75
2023/08/04 02:04:47;;;;;;;10.75;9.55;;;;;;;23.48;87.46;64433.97;5085094;28;20215;-75
2023/08/04 02:07:14;;;;;;;11.52;10.43;;;;;;;23.38;88.14;64426.13;5087347;28;20270;-75
2023/08/04 02:09:42;;;;;;;10.73;9.68;;;;;;;23.41;87.81;64426.66;5086248;28;20216;-77
2023/08/04 02:12:09;;;;;;;11.00;9.82;;;;;;;23.39;87.72;64421.97;5087223;28;20239;-76
2023/08/04 02:14:38;;;;;;;10.77;9.77;;;;;;;23.40;88.29;64423.00;5085873;28;20224;-77
2023/08/04 02:17:05;;;;;;;11.32;10.13;;;;;;;23.39;88.82;64424.03;5086788;28;20397;-75
2023/08/04 02:19:32;;;;;;;12.15;11.05;;;;;;;23.28;89.61;64407.84;5084154;28;20224;-77
2023/08/04 02:21:59;;;;;;;15.10;10.77;;;;;;;23.21;89.98;64408.28;5084893;28;20196;-75
2023/08/04 02:24:26;;;;;;;10.73;9.75;;;;;;;23.18;91.61;64402.03;5066721;28;20362;-76
2023/08/04 02:26:53;;;;;;;10.38;9.38;;;;;;;23.12;91.97;64398.91;5086247;28;20207;-75
2023/08/04 02:29:20;;;;;;;10.68;9.68;;;;;;;23.05;91.71;64394.16;5085918;28;20224;-75
2023/08/04 02:31:48;;;;;;;12.02;10.30;;;;;;;23.10;90.65;64399.41;5081211;28;20252;-77
2023/08/04 02:34:16;;;;;;;11.20;10.00;;;;;;;23.11;90.07;64397.34;5085964;28;20216;-77
2023/08/04 02:36:42;;;;;;;11.05;9.95;;;;;;;23.13;89.91;64399.41;5086231;28;20196;-77
2023/08/04 02:39:10;;;;;;;11.40;10.27;;;;;;;23.15;90.19;64402.03;5083740;28;20243;-76
2023/08/04 02:41:37;;;;;;;10.38;9.43;;;;;;;23.13;90.28;64394.22;5085788;28;20207;-76
2023/08/04 02:44:06;;;;;;;10.90;9.82;;;;;;;23.10;90.36;64394.19;5086377;28;20544;-77
2023/08/04 02:46:33;;;;;;;10.75;9.68;;;;;;;23.09;90.31;64390.53;5083974;28;20222;-75
2023/08/04 02:49:02;;;;;;;11.35;9.45;;;;;;;23.07;90.44;64396.28;5085066;28;20412;-74
2023/08/04 02:51:29;;;;;;;11.25;10.02;;;;;;;23.06;90.57;64390.00;5085507;28;20230;-76
2023/08/04 02:53:55;;;;;;;10.00;9.10;;;;;;;23.04;90.09;64390.50;5085195;28;20227;-76
2023/08/04 02:56:22;;;;;;;10.63;9.73;;;;;;;23.02;90.40;64383.22;5085955;28;20234;-75
2023/08/04 02:58:50;;;;;;;10.77;9.70;;;;;;;23.06;91.01;64392.09;5082430;28;20239;-76
2023/08/04 03:01:17;;;;;;;10.25;9.30;;;;;;;22.99;91.57;64387.88;5085630;28;20248;-76
2023/08/04 03:03:44;;;;;;;10.43;9.52;;;;;;;23.00;90.64;64380.63;5085193;28;20415;-75
2023/08/04 03:06:12;;;;;;;11.70;10.30;;;;;;;22.96;91.52;64384.22;5083213;28;20572;-75
2023/08/04 03:08:39;;;;;;;11.20;10.18;;;;;;;22.96;91.95;64386.81;5083971;28;20227;-75
2023/08/04 03:11:10;;;;;;;10.85;9.63;;;;;;;22.98;91.86;64381.66;5086782;28;20216;-76
2023/08/04 03:13:37;;;;;;;11.77;10.13;;;;;;;22.95;92.32;64378.53;5079978;28;20223;-75
2023/08/04 03:16:04;;;;;;;11.57;10.52;;;;;;;22.96;92.57;64382.16;5084425;28;20263;-75
2023/08/04 03:18:31;;;;;;;10.73;9.50;;;;;;;22.95;92.64;64378.00;5082926;28;20262;-77
2023/08/04 03:21:02;;;;;;;11.80;10.80;;;;;;;22.96;92.87;64381.63;5084195;28;20215;-76
2023/08/04 03:23:30;;;;;;;10.80;9.80;;;;;;;22.96;92.95;64379.03;5083454;28;20219;-77
2023/08/04 03:25:57;;;;;;;10.48;9.48;;;;;;;22.96;92.39;64379.03;5080600;28;20213;-76
2023/08/04 03:28:24;;;;;;;12.57;10.68;;;;;;;22.96;92.39;64379.56;5084759;28;20590;-75
2023/08/04 03:30:51;;;;;;;11.68;10.60;;;;;;;23.00;92.31;64386.34;5084670;28;20192;-75
2023/08/04 03:33:19;;;;;;;10.50;9.60;;;;;;;22.98;92.26;64381.66;5082458;28;20241;-76
2023/08/04 03:35:46;;;;;;;11.43;10.32;;;;;;;23.01;91.85;64384.78;5081428;28;20200;-76
2023/08/04 03:38:13;;;;;;;11.82;9.80;;;;;;;23.01;91.92;64384.78;5085084;28;20224;-74
2023/08/04 03:40:41;;;;;;;11.20;10.25;;;;;;;23.04;91.79;64392.59;5082351;28;20481;-75
2023/08/04 03:43:09;;;;;;;12.27;11.00;;;;;;;23.06;92.36;64392.59;5083883;28;20423;-76
2023/08/04 03:45:36;;;;;;;12.13;10.75;;;;;;;23.11;92.44;64394.72;5082280;28;20511;-77
2023/08/04 03:48:03;;;;;;;11.27;10.27;;;;;;;23.17;91.68;64401.00;5083945;28;20216;-76
2023/08/04 03:50:30;;;;;;;10.45;9.45;;;;;;;23.23;90.96;64407.78;5082668;28;20234;-76
2023/08/04 03:52:57;;;;;;;11.27;10.13;;;;;;;23.27;90.96;64414.59;5082462;28;20236;-76
2023/08/04 03:55:24;;;;;;;11.50;10.52;;;;;;;23.36;90.35;64420.91;5084189;28;20299;-75
2023/08/04 03:57:53;;;;;;;11.00;10.10;;;;;;;23.42;89.76;64425.09;5084373;28;20239;-76
2023/08/04 04:00:20;;;;;;;10.98;9.85;;;;;;;23.49;89.84;64435.00;5082122;28;20195;-75
2023/08/04 04:02:47;;;;;;;10.85;9.82;;;;;;;23.56;89.63;64442.34;5080846;28;20291;-76
2023/08/04 04:05:14;;;;;;;10.98;9.88;;;;;;;23.65;88.77;64451.75;5084000;28;20204;-76
2023/08/04 04:07:41;;;;;;;11.38;10.27;;;;;;;23.73;88.07;64462.19;5081593;28;20371;-75
2023/08/04 04:10:09;;;;;;;10.38;9.43;;;;;;;23.87;87.62;64474.25;5086759;28;20196;-75
2023/08/04 04:12:36;;;;;;;11.73;10.43;;;;;;;23.95;87.79;64480.53;5074577;28;20239;-76
2023/08/04 04:15:06;;;;;;;10.43;9.55;;;;;;;24.04;88.00;64494.16;5085087;28;20203;-76
2023/08/04 04:17:33;;;;;;;10.63;9.63;;;;;;;24.12;87.96;64499.91;5080727;28;20198;-76
2023/08/04 04:20:00;;;;;;;10.57;9.60;;;;;;;24.25;87.21;64516.66;5083521;28;20560;-75
2023/08/04 04:22:27;;;;;;;13.63;10.15;;;;;;;24.34;86.50;64523.47;5083726;28;20200;-74
2023/08/04 04:24:53;;;;;;;13.35;10.57;;;;;;;24.44;86.80;64533.94;5082968;28;20238;-74
2023/08/04 04:27:20;;;;;;;12.55;10.73;;;;;;;24.59;82.61;64549.66;5080277;28;20205;-76
2023/08/04 04:29:47;;;;;;;10.70;9.70;;;;;;;24.67;87.35;64557.50;5084206;28;20212;-76
2023/08/04 04:32:16;;;;;;;11.70;10.68;;;;;;;24.68;89.33;64553.88;5083600;28;20192;-75
2023/08/04 04:34:43;;;;;;;10.43;9.52;;;;;;;24.74;89.08;64565.38;5080283;28;20224;-75
2023/08/04 04:37:10;;;;;;;11.80;10.70;;;;;;;24.82;88.85;64573.22;5085298;28;20200;-75
2023/08/04 04:39:37;;;;;;;12.35;11.15;;;;;;;24.89;85.69;64580.56;5084450;28;20261;-76
2023/08/04 04:42:06;;;;;;;11.70;10.65;;;;;;;24.83;85.37;64576.91;5082054;28;20212;-76
2023/08/04 04:44:32;;;;;;;11.68;10.55;;;;;;;24.94;85.45;64588.94;5083209;28;20234;-74
2023/08/04 04:46:59;;;;;;;12.10;10.82;;;;;;;25.03;83.04;64595.22;5069962;28;20369;-75
2023/08/04 04:49:27;;;;;;;13.13;11.73;;;;;;;25.07;85.28;64602.03;5075950;28;20627;-75
2023/08/04 04:51:54;;;;;;;12.15;10.90;;;;;;;24.98;82.95;64590.00;5085867;28;20200;-76
2023/08/04 04:54:21;;;;;;;11.60;10.48;;;;;;;24.88;83.01;64577.44;5084519;28;20232;-76
2023/08/04 04:56:49;;;;;;;13.15;11.40;;;;;;;24.73;86.36;64566.94;5084416;28;20196;-75
2023/08/04 04:59:16;;;;;;;14.55;10.88;;;;;;;24.78;85.78;64571.66;5084177;28;20222;-76
2023/08/04 05:01:44;;;;;;;12.68;11.43;;;;;;;24.88;84.59;64579.53;5080914;28;20227;-75
2023/08/04 05:04:11;;;;;;;13.40;12.10;;;;;;;24.88;83.63;64579.53;5088447;28;20226;-76
2023/08/04 05:06:39;;;;;;;18.15;11.95;;;;;;;24.86;84.04;64582.63;5088526;28;20211;-75
2023/08/04 05:09:10;;;;;;;13.07;11.32;;;;;;;24.84;85.28;64575.84;5084931;28;20283;-75
2023/08/04 05:11:37;;;;;;;18.27;11.85;;;;;;;24.99;87.22;64588.44;5086366;28;20524;-76
2023/08/04 05:14:04;;;;;;;17.83;12.52;;;;;;;25.12;84.21;64604.66;5086888;28;20224;-74
2023/08/04 05:16:31;;;;;;;18.15;12.80;;;;;;;25.24;84.52;64617.22;5087490;28;20196;-75
2023/08/04 05:18:58;;;;;;;14.63;12.23;;;;;;;25.32;82.01;64630.28;5083626;28;20478;-76
2023/08/04 05:21:25;;;;;;;13.43;11.45;;;;;;;25.37;82.42;64628.25;5088554;28;20246;-75
2023/08/04 05:23:54;;;;;;;13.38;11.98;;;;;;;25.38;80.33;64628.78;5084022;28;20529;-75
2023/08/04 05:26:21;;;;;;;12.43;11.23;;;;;;;25.51;80.02;64642.94;5086466;28;20196;-76
2023/08/04 05:28:48;;;;;;;14.38;11.85;;;;;;;25.59;79.06;64656.00;5085030;28;20219;-76
2023/08/04 05:31:16;;;;;;;12.35;11.18;;;;;;;25.68;80.57;64663.34;5087245;28;20192;-77
2023/08/04 05:33:43;;;;;;;12.85;10.55;;;;;;;25.83;79.96;64683.78;5085141;28;20238;-75
2023/08/04 05:36:12;;;;;;;13.07;10.77;;;;;;;26.08;78.38;64707.91;5089165;28;20208;-76
2023/08/04 05:38:39;;;;;;;15.27;11.32;;;;;;;26.13;76.72;64713.16;5087089;28;20429;-75
2023/08/04 05:41:07;;;;;;;14.82;10.70;;;;;;;26.14;77.11;64711.06;5085257;28;20504;-75
2023/08/04 05:43:34;;;;;;;17.00;12.50;;;;;;;26.10;74.95;64710.00;5087229;28;20216;-76
2023/08/04 05:46:03;;;;;;;13.75;12.00;;;;;;;26.06;74.69;64697.97;5083826;28;20211;-76
2023/08/04 05:48:30;;;;;;;15.30;12.95;;;;;;;26.10;74.26;64704.78;5087302;28;20230;-76
2023/08/04 05:50:58;;;;;;;18.50;12.27;;;;;;;26.00;75.01;64702.13;5089276;28;20202;-75
2023/08/04 05:53:25;;;;;;;19.45;11.93;;;;;;;26.11;74.96;64707.94;5087016;28;20255;-75
2023/08/04 05:55:51;;;;;;;12.05;10.82;;;;;;;26.44;71.37;64742.00;5082791;28;20196;-77
2023/08/04 05:58:20;;;;;;;11.25;10.20;;;;;;;26.73;69.29;64769.81;5087427;28;20290;-75
2023/08/04 06:00:47;;;;;;;11.63;10.50;;;;;;;26.93;69.74;64793.94;5085850;28;20406;-77
2023/08/04 06:03:14;;;;;;;11.20;10.10;;;;;;;26.97;69.51;64797.59;5084276;28;20216;-76
2023/08/04 06:05:42;;;;;;;11.50;10.13;;;;;;;27.07;70.38;64806.00;5085410;28;20211;-75
2023/08/04 06:08:10;;;;;;;11.25;10.23;;;;;;;27.21;69.61;64820.66;5088732;28;20501;-76
2023/08/04 06:10:37;;;;;;;10.13;9.30;;;;;;;27.49;68.92;64851.66;5084472;28;20386;-76
2023/08/04 06:13:04;;;;;;;10.68;9.52;;;;;;;27.73;66.17;64877.38;5085493;28;20270;-76
2023/08/04 06:15:33;;;;;;;10.63;9.73;;;;;;;27.79;66.15;64883.66;5085982;28;20194;-76
2023/08/04 06:18:00;;;;;;;13.27;9.95;;;;;;;27.83;65.67;64884.72;5082426;28;20235;-77
2023/08/04 06:20:28;;;;;;;13.70;10.10;;;;;;;27.94;63.18;64901.53;5087651;28;20490;-77
2023/08/04 06:22:55;;;;;;;10.48;9.52;;;;;;;28.00;64.00;64907.81;5087317;28;20634;-78
2023/08/04 06:25:22;;;;;;;10.98;9.98;;;;;;;28.21;63.32;64925.16;5087094;28;20485;-76
2023/08/04 06:27:50;;;;;;;11.38;10.23;;;;;;;28.39;60.45;64948.75;5083330;28;20219;-76
2023/08/04 06:30:18;;;;;;;11.23;10.20;;;;;;;28.43;60.04;64953.50;5085031;28;20192;-75
2023/08/04 06:32:47;;;;;;;11.43;10.18;;;;;;;28.52;59.50;64959.81;5066616;28;20195;-76
2023/08/04 06:35:14;;;;;;;10.55;9.52;;;;;;;28.67;59.87;64975.56;5071455;28;20269;-75
2023/08/04 06:37:41;;;;;;;11.55;10.55;;;;;;;28.76;59.93;64984.50;5087687;28;20203;-76
2023/08/04 06:40:09;;;;;;;10.40;9.60;;;;;;;28.99;59.71;65013.91;5086445;28;20221;-75
2023/08/04 06:42:36;;;;;;;10.32;9.43;;;;;;;29.14;58.01;65024.44;5088548;28;20222;-76
2023/08/04 06:45:03;;;;;;;10.20;9.20;;;;;;;29.11;56.16;65021.28;5088022;28;20207;-76
2023/08/04 06:47:30;;;;;;;9.35;8.55;;;;;;;29.17;55.50;65027.56;5085936;28;20330;-76
2023/08/04 06:49:59;;;;;;;8.85;8.05;;;;;;;29.29;54.67;65037.56;5076373;28;20208;-77
2023/08/04 06:52:27;;;;;;;19.17;8.77;;;;;;;29.44;54.83;65061.22;5090500;28;20196;-76
2023/08/04 06:54:55;;;;;;;9.32;8.43;;;;;;;29.56;54.72;65065.94;5086836;28;20238;-79
2023/08/04 06:57:22;;;;;;;9.68;8.82;;;;;;;29.65;52.79;65074.88;5085759;28;20196;-75
2023/08/04 06:59:49;;;;;;;8.57;7.90;;;;;;;29.69;52.26;65081.72;5086998;28;20255;-76
2023/08/04 07:02:16;;;;;;;9.60;8.80;;;;;;;29.73;52.64;65085.94;5087277;28;20202;-77
2023/08/04 07:04:43;;;;;;;8.38;7.60;;;;;;;29.75;51.93;65085.41;5086376;28;20239;-76
2023/08/04 07:07:13;;;;;;;8.10;7.50;;;;;;;29.78;52.02;65091.72;5089096;28;20235;-77
2023/08/04 07:09:40;;;;;;;8.05;7.32;;;;;;;29.90;50.87;65109.56;5088295;28;20261;-76
2023/08/04 07:12:08;;;;;;;8.60;7.75;;;;;;;30.09;50.41;65126.94;5088736;28;20196;-75
2023/08/04 07:14:35;;;;;;;8.13;7.43;;;;;;;30.08;49.41;65120.59;5087119;28;20572;-77
2023/08/04 07:17:03;;;;;;;8.27;7.57;;;;;;;30.15;49.85;65135.34;5087033;28;20215;-75
2023/08/04 07:19:30;;;;;;;8.05;7.35;;;;;;;30.09;50.25;65123.75;5089046;28;20249;-75
2023/08/04 07:21:57;;;;;;;8.02;7.35;;;;;;;30.05;50.38;65114.31;5086542;28;20204;-76
2023/08/04 07:24:27;;;;;;;8.30;7.60;;;;;;;30.20;49.85;65141.09;5086138;28;20216;-76
2023/08/04 07:26:54;;;;;;;8.40;7.70;;;;;;;30.37;49.38;65153.22;5087573;28;20204;-79
2023/08/04 07:29:21;;;;;;;9.18;8.48;;;;;;;30.48;48.78;65167.41;5087268;28;20317;-76
2023/08/04 07:31:48;;;;;;;8.10;7.40;;;;;;;30.60;49.07;65177.94;5086003;28;20208;-75
2023/08/04 07:34:16;;;;;;;8.60;7.70;;;;;;;30.69;48.92;65194.22;5083997;28;20235;-76
2023/08/04 07:36:43;;;;;;;7.03;6.50;;;;;;;30.79;48.29;65202.66;5087328;28;20198;-75
2023/08/04 07:39:11;;;;;;;9.57;7.88;;;;;;;30.80;48.16;65201.09;5085986;28;20218;-75
2023/08/04 07:41:39;;;;;;;7.38;6.78;;;;;;;31.00;48.07;65221.59;5086238;28;20547;-76
2023/08/04 07:44:06;;;;;;;8.10;7.53;;;;;;;31.03;47.63;65224.78;5083214;28;20224;-76
2023/08/04 07:46:33;;;;;;;8.73;7.68;;;;;;;31.04;47.45;65231.63;5077031;28;20216;-76
2023/08/04 07:49:00;;;;;;;7.60;7.05;;;;;;;31.18;47.00;65241.09;5078363;28;20525;-76
2023/08/04 07:51:27;;;;;;;8.27;7.57;;;;;;;31.21;47.60;65246.88;5077066;28;20200;-76
2023/08/04 07:53:53;;;;;;;9.43;8.52;;;;;;;31.24;46.73;65244.22;5078282;28;20240;-76
2023/08/04 07:56:20;;;;;;;11.13;8.40;;;;;;;31.32;46.87;65255.28;5071088;28;20398;-76
2023/08/04 07:58:49;;;;;;;8.82;8.02;;;;;;;31.41;46.79;65262.13;5074031;28;20283;-76
2023/08/04 08:01:16;;;;;;;8.52;7.70;;;;;;;31.56;46.59;65277.94;5075952;28;20426;-76
2023/08/04 08:03:43;;;;;;;9.27;8.48;;;;;;;31.63;46.66;65285.81;5076913;28;20255;-77
2023/08/04 08:06:10;;;;;;;8.85;8.15;;;;;;;31.49;47.72;65276.34;5076660;28;20200;-75
2023/08/04 08:08:37;;;;;;;9.30;8.57;;;;;;;31.36;46.88;65256.88;5071030;28;20216;-76
2023/08/04 08:11:09;;;;;;;8.05;7.47;;;;;;;31.59;47.23;65281.59;5075803;28;20424;-76
2023/08/04 08:13:37;;;;;;;9.20;7.72;;;;;;;31.73;46.43;65297.91;5076278;28;20232;-75
2023/08/04 08:16:10;;;;;;;8.98;8.30;;;;;;;31.83;45.90;65306.34;5076396;28;20210;-76
2023/08/04 08:18:37;;;;;;;9.35;8.20;;;;;;;31.78;45.71;65298.44;5079924;28;20251;-76
2023/08/04 08:21:08;;;;;;;9.38;8.48;;;;;;;31.68;45.78;65293.19;5068551;28;20493;-75
2023/08/04 08:23:35;;;;;;;8.98;8.23;;;;;;;31.64;46.47;65292.13;5072761;28;20529;-75
2023/08/04 08:26:04;;;;;;;9.18;8.20;;;;;;;31.69;46.97;65288.97;5072713;28;20234;-76
2023/08/04 08:28:32;;;;;;;9.77;8.98;;;;;;;31.92;47.55;65315.84;5073114;28;20244;-75
2023/08/04 08:30:58;;;;;;;9.52;8.70;;;;;;;32.03;46.26;65326.88;5071187;28;20208;-76
2023/08/04 08:33:27;;;;;;;9.25;8.45;;;;;;;32.16;44.55;65343.75;5070437;28;20217;-75
2023/08/04 08:35:55;;;;;;;9.43;8.52;;;;;;;32.26;44.58;65354.25;5071710;28;20200;-77
2023/08/04 08:38:22;;;;;;;9.70;8.80;;;;;;;32.25;44.70;65353.22;5072894;28;20258;-78
2023/08/04 08:40:49;;;;;;;8.93;8.23;;;;;;;32.38;44.30;65363.72;5080505;28;20235;-74
2023/08/04 08:43:17;;;;;;;9.02;8.20;;;;;;;32.38;44.14;65366.91;5078082;28;20232;-77
2023/08/04 08:45:45;;;;;;;8.68;8.05;;;;;;;32.46;44.62;65377.97;5075650;28;20238;-75
2023/08/04 08:48:12;;;;;;;9.05;8.20;;;;;;;32.53;42.96;65380.06;5078338;28;20273;-76
2023/08/04 08:50:42;;;;;;;9.80;8.52;;;;;;;32.59;43.95;65391.69;5078215;28;20197;-76
2023/08/04 08:53:12;;;;;;;8.63;8.02;;;;;;;32.69;44.26;65399.56;5075802;28;22805;-75
2023/08/04 08:55:40;;;;;;;9.63;8.82;;;;;;;32.78;43.05;65411.16;5080298;28;20265;-75
2023/08/04 08:58:09;;;;;;;8.90;8.20;;;;;;;32.77;44.31;65404.84;5079019;28;20228;-76
2023/08/04 09:00:36;;;;;;;8.85;8.00;;;;;;;32.94;43.62;65422.22;5074681;28;20255;-77
2023/08/04 09:03:05;;;;;;;8.65;8.05;;;;;;;33.09;42.37;65443.28;5078234;28;20216;-79
2023/08/04 09:05:32;;;;;;;8.90;8.30;;;;;;;33.10;43.53;65439.09;5073774;28;20213;-76
2023/08/04 09:08:00;;;;;;;9.18;8.38;;;;;;;33.18;42.15;65442.22;5077326;28;20220;-75
2023/08/04 09:10:27;;;;;;;8.90;8.10;;;;;;;33.29;42.10;65464.91;5077725;28;20200;-78
2023/08/04 09:12:56;;;;;;;8.63;8.02;;;;;;;33.41;41.78;65474.38;5074829;28;20216;-75
2023/08/04 09:15:33;;;;;;;9.48;8.73;;;;;;;33.37;41.48;65470.16;5080605;28;20234;-76
2023/08/04 09:18:00;;;;;;;9.73;8.75;;;;;;;33.34;41.71;65467.00;5082662;28;20447;-75
2023/08/04 09:20:29;;;;;;;9.65;8.20;;;;;;;33.43;41.91;65479.16;5079863;28;20211;-77
2023/08/04 09:22:56;;;;;;;10.65;8.48;;;;;;;33.46;41.85;65480.19;5078854;28;20242;-75
2023/08/04 09:25:24;;;;;;;10.00;9.30;;;;;;;33.60;42.27;65497.06;5077816;28;20192;-76
2023/08/04 09:27:51;;;;;;;10.15;8.80;;;;;;;33.66;42.08;65500.75;5080277;28;20227;-79
2023/08/04 09:30:19;;;;;;;8.70;8.05;;;;;;;33.77;41.37;65510.22;5080562;28;20389;-76
2023/08/04 09:32:49;;;;;;;9.43;8.50;;;;;;;33.73;40.23;65505.47;5077913;28;20197;-76
2023/08/04 09:35:17;;;;;;;8.85;8.15;;;;;;;33.60;40.04;65497.59;5073381;28;20399;-78
2023/08/04 09:37:44;;;;;;;9.05;8.25;;;;;;;33.81;41.20;65513.91;5075381;28;20566;-77
2023/08/04 09:40:17;;;;;;;8.90;8.20;;;;;;;33.97;40.81;65535.53;5077236;28;20197;-77
2023/08/04 09:42:46;;;;;;;14.30;8.20;;;;;;;34.04;38.62;65540.28;5071535;28;20271;-77
2023/08/04 09:45:16;;;;;;;8.45;7.78;;;;;;;34.15;38.86;65555.06;5077744;28;20222;-76
2023/08/04 09:47:48;;;;;;;9.02;8.10;;;;;;;34.27;38.34;65564.53;5076287;28;20267;-76
2023/08/04 09:50:16;;;;;;;8.15;7.55;;;;;;;34.30;37.73;65562.94;5081907;28;20197;-76
2023/08/04 09:52:43;;;;;;;7.47;6.97;;;;;;;34.39;38.52;65580.38;5090826;28;20203;-75
2023/08/04 09:55:10;;;;;;;8.45;7.35;;;;;;;34.46;38.12;65584.59;5089277;28;20251;-76
2023/08/04 09:57:37;;;;;;;8.90;8.07;;;;;;;34.51;38.24;65593.03;5086194;28;20192;-77
2023/08/04 10:00:09;;;;;;;8.98;8.07;;;;;;;34.64;37.94;65603.56;5087504;28;20203;-76
2023/08/04 10:02:37;;;;;;;7.90;7.30;;;;;;;34.71;37.29;65608.28;5080743;28;20261;-76
2023/08/04 10:05:05;;;;;;;7.93;7.32;;;;;;;34.79;37.33;65622.56;5086957;28;20284;-75
2023/08/04 10:07:32;;;;;;;9.15;8.23;;;;;;;34.96;37.22;65636.81;5084552;28;20309;-76
2023/08/04 10:10:03;;;;;;;8.80;8.20;;;;;;;34.90;36.23;65625.69;5089351;28;20239;-76
2023/08/04 10:12:31;;;;;;;7.65;7.00;;;;;;;34.87;37.42;65623.06;5087508;28;20196;-78
2023/08/04 10:14:58;;;;;;;8.63;7.85;;;;;;;34.91;35.96;65632.59;5081312;28;20228;-76
2023/08/04 10:17:28;;;;;;;8.02;7.38;;;;;;;35.00;35.52;65644.19;5086863;28;20321;-77
2023/08/04 10:20:05;;;;;;;8.45;7.75;;;;;;;34.83;36.88;65623.59;5086839;28;20195;-76
2023/08/04 10:22:33;;;;;;;8.40;7.75;;;;;;;34.95;36.51;65636.28;5090657;28;20216;-76
2023/08/04 10:25:01;;;;;;;7.80;7.20;;;;;;;35.03;36.23;65638.91;5088134;28;20215;-74
2023/08/04 10:27:29;;;;;;;8.23;7.50;;;;;;;35.18;35.52;65660.00;5088251;28;20263;-75
2023/08/04 10:30:09;;;;;;;7.63;7.03;;;;;;;35.17;34.15;65656.31;5086277;28;20262;-76
2023/08/04 10:32:40;;;;;;;8.50;7.68;;;;;;;35.36;34.30;65681.66;5088022;28;20188;-77
2023/08/04 10:35:18;;;;;;;8.23;7.60;;;;;;;35.47;34.84;65693.28;5084148;28;20239;-76
2023/08/04 10:37:48;;;;;;;8.85;7.95;;;;;;;35.62;35.19;65706.47;5089153;28;20367;-74
2023/08/04 10:40:28;;;;;;;9.07;8.32;;;;;;;35.58;35.50;65702.25;5092142;28;20195;-76
2023/08/04 10:43:00;;;;;;;8.73;8.05;;;;;;;35.28;33.38;65668.44;5078627;28;20235;-77
2023/08/04 10:45:52;;;;;;;17.13;9.27;;;;;;;35.51;34.44;65697.50;5081782;28;20208;-76
2023/08/04 10:48:22;;;;;;;9.20;8.55;;;;;;;35.78;34.58;65721.22;5086265;28;20305;-77
2023/08/04 10:50:50;;;;;;;9.75;8.35;;;;;;;35.81;34.21;65724.38;5075398;28;20477;-76
2023/08/04 10:53:19;;;;;;;9.18;8.48;;;;;;;36.03;33.45;65746.56;5077511;28;20220;-77
2023/08/04 10:55:54;;;;;;;9.77;7.97;;;;;;;36.17;33.16;65764.00;5086067;28;20227;-75
2023/08/04 10:58:21;;;;;;;8.52;7.72;;;;;;;36.35;33.76;65783.53;5083448;28;20286;-78
2023/08/04 11:00:49;;;;;;;8.73;8.02;;;;;;;36.37;32.90;65785.13;5083299;28;20499;-78
2023/08/04 11:03:25;;;;;;;8.50;7.90;;;;;;;36.36;33.64;65781.44;5087060;28;20230;-76
2023/08/04 11:05:54;;;;;;;8.52;8.02;;;;;;;36.52;33.27;65800.97;5082940;28;20199;-74
2023/08/04 11:08:22;;;;;;;8.75;8.10;;;;;;;36.47;32.48;65798.88;5088540;28;20230;-76
2023/08/04 11:10:50;;;;;;;8.38;7.78;;;;;;;36.31;32.24;65778.78;5088606;28;20206;-77
2023/08/04 11:13:19;;;;;;;8.88;8.23;;;;;;;36.17;34.06;65766.66;5085930;28;20220;-79
2023/08/04 11:15:46;;;;;;;8.27;7.68;;;;;;;36.30;33.34;65778.25;5073905;28;20556;-77
2023/08/04 11:18:15;;;;;;;8.13;7.63;;;;;;;36.33;33.25;65780.91;5083654;28;20216;-76
2023/08/04 11:20:44;;;;;;;8.70;7.90;;;;;;;36.20;33.38;65769.81;5086889;28;20202;-75
2023/08/04 11:23:11;;;;;;;9.07;8.07;;;;;;;36.36;32.83;65784.63;5088325;28;20216;-75
2023/08/04 11:25:39;;;;;;;8.55;7.70;;;;;;;36.48;33.42;65797.28;5086053;28;20195;-76
2023/08/04 11:28:07;;;;;;;8.63;7.72;;;;;;;36.47;32.08;65793.03;5083303;28;20220;-77
2023/08/04 11:30:36;;;;;;;7.60;7.00;;;;;;;36.61;32.38;65813.66;5085230;28;20200;-75